createdAt,value
2018-07-08T00:00:08.265Z,20.90
2018-07-08T00:02:37.022Z,22.10
2018-07-08T00:05:05.763Z,21.50
2018-07-08T00:07:36.418Z,22.07
2018-07-08T00:10:05.194Z,21.90
2018-07-08T00:12:33.931Z,22.13
2018-07-08T00:15:02.631Z,21.03
2018-07-08T00:17:31.253Z,21.40
2018-07-08T00:20:00.063Z,21.20
2018-07-08T00:22:28.670Z,22.60
2018-07-08T00:24:57.404Z,21.63
2018-07-08T00:27:26.063Z,23.57
2018-07-08T00:29:54.814Z,22.07
2018-07-08T00:32:23.542Z,22.90
2018-07-08T00:34:51.864Z,22.10
2018-07-08T00:37:20.450Z,22.93
2018-07-08T00:39:49.180Z,23.23
2018-07-08T00:42:17.802Z,22.70
2018-07-08T00:44:46.510Z,23.33
2018-07-08T00:47:15.253Z,24.03
2018-07-08T00:49:44.051Z,24.90
2018-07-08T00:52:13.099Z,22.23
2018-07-08T00:54:41.838Z,23.00
2018-07-08T00:57:10.568Z,22.90
2018-07-08T00:59:39.241Z,25.10
2018-07-08T01:02:07.950Z,22.87
2018-07-08T01:04:36.682Z,21.57
2018-07-08T01:07:05.297Z,22.67
2018-07-08T01:09:34.040Z,23.17
2018-07-08T01:12:02.808Z,23.47
2018-07-08T01:14:31.419Z,24.33
2018-07-08T01:17:00.074Z,23.40
2018-07-08T01:19:29.451Z,22.13
2018-07-08T01:21:58.061Z,22.77
2018-07-08T01:24:26.710Z,21.97
2018-07-08T01:26:55.421Z,23.87
2018-07-08T01:29:24.078Z,20.83
2018-07-08T01:31:52.778Z,20.67
2018-07-08T01:34:22.536Z,21.40
2018-07-08T01:36:50.826Z,22.20
2018-07-08T01:39:19.411Z,22.03
2018-07-08T01:41:48.237Z,22.10
2018-07-08T01:44:16.907Z,19.97
2018-07-08T01:46:45.537Z,22.70
2018-07-08T01:49:14.191Z,21.83
2018-07-08T01:51:42.813Z,23.43
2018-07-08T01:54:11.849Z,22.53
2018-07-08T01:56:40.663Z,22.33
2018-07-08T01:59:09.349Z,22.90
2018-07-08T02:01:37.998Z,23.50
2018-07-08T02:04:06.685Z,22.63
2018-07-08T02:06:35.470Z,23.30
2018-07-08T02:09:04.401Z,22.13
2018-07-08T02:11:33.331Z,23.23
2018-07-08T02:14:01.688Z,24.20
2018-07-08T02:16:30.402Z,25.13
2018-07-08T02:18:58.717Z,23.87
2018-07-08T02:21:27.609Z,25.13
2018-07-08T02:23:56.300Z,21.77
2018-07-08T02:26:25.005Z,24.17
2018-07-08T02:28:53.800Z,24.00
2018-07-08T02:31:22.659Z,20.20
2018-07-08T02:33:51.296Z,22.27
2018-07-08T02:36:20.018Z,21.10
2018-07-08T02:38:48.764Z,21.27
2018-07-08T02:41:17.428Z,19.43
2018-07-08T02:43:46.266Z,16.93
2018-07-08T02:46:15.033Z,15.40
2018-07-08T02:48:43.857Z,18.47
2018-07-08T02:51:12.495Z,17.63
2018-07-08T02:53:41.202Z,16.70
2018-07-08T02:56:09.936Z,17.03
2018-07-08T02:58:38.681Z,19.27
2018-07-08T03:01:07.455Z,18.87
2018-07-08T03:03:35.762Z,16.50
2018-07-08T03:06:04.519Z,15.57
2018-07-08T03:08:33.219Z,16.73
2018-07-08T03:11:01.864Z,18.00
2018-07-08T03:13:30.534Z,19.73
2018-07-08T03:15:59.184Z,19.53
2018-07-08T03:18:28.786Z,19.30
2018-07-08T03:20:57.094Z,16.77
2018-07-08T03:23:25.803Z,15.90
2018-07-08T03:25:54.546Z,14.57
2018-07-08T03:28:23.326Z,15.80
2018-07-08T03:30:52.077Z,15.00
2018-07-08T03:33:20.812Z,17.67
2018-07-08T03:35:49.444Z,15.97
2018-07-08T03:38:18.292Z,16.17
2018-07-08T03:40:46.997Z,15.17
2018-07-08T03:43:15.766Z,16.60
2018-07-08T03:45:45.495Z,15.37
2018-07-08T03:48:14.278Z,15.03
2018-07-08T03:50:43.097Z,14.77
2018-07-08T03:53:11.801Z,14.20
2018-07-08T03:55:40.501Z,14.80
2018-07-08T03:58:09.231Z,18.33
2018-07-08T04:00:37.905Z,18.33
2018-07-08T04:03:06.615Z,17.07
2018-07-08T04:05:35.272Z,17.90
2018-07-08T04:08:04.153Z,17.40
2018-07-08T04:10:32.710Z,19.97
2018-07-08T04:13:01.371Z,19.33
2018-07-08T04:15:30.331Z,23.47
2018-07-08T04:18:06.651Z,20.70
2018-07-08T04:20:35.738Z,22.00
2018-07-08T04:23:04.467Z,21.83
2018-07-08T04:25:33.871Z,18.77
2018-07-08T04:28:02.872Z,17.37
2018-07-08T04:30:32.013Z,19.43
2018-07-08T04:33:00.542Z,19.40
2018-07-08T04:35:29.306Z,20.57
2018-07-08T04:37:58.986Z,19.77
2018-07-08T04:40:27.766Z,18.70
2018-07-08T04:42:56.498Z,21.70
2018-07-08T04:45:25.200Z,20.83
2018-07-08T04:47:53.883Z,21.03
2018-07-08T04:50:22.525Z,21.10
2018-07-08T04:52:51.163Z,22.40
2018-07-08T04:55:19.912Z,22.87
2018-07-08T04:57:48.666Z,23.40
2018-07-08T05:00:17.330Z,22.03
2018-07-08T05:02:45.982Z,24.60
2018-07-08T05:05:14.682Z,24.67
2018-07-08T05:07:43.341Z,23.50
2018-07-08T05:10:12.000Z,24.23
2018-07-08T05:12:40.675Z,24.83
2018-07-08T05:15:09.287Z,24.67
2018-07-08T05:17:37.947Z,23.87
2018-07-08T05:20:06.719Z,25.23
2018-07-08T05:22:35.375Z,24.60
2018-07-08T05:25:05.222Z,26.30
2018-07-08T05:27:33.958Z,23.87
2018-07-08T05:30:02.569Z,24.70
2018-07-08T05:32:31.327Z,21.93
2018-07-08T05:35:00.038Z,22.80
2018-07-08T05:37:28.687Z,25.10
2018-07-08T05:39:57.345Z,23.50
2018-07-08T05:42:25.942Z,25.10
2018-07-08T05:44:54.704Z,23.20
2018-07-08T05:47:24.351Z,26.00
2018-07-08T05:49:52.966Z,24.00
2018-07-08T05:52:21.535Z,23.90
2018-07-08T05:54:49.888Z,24.63
2018-07-08T05:57:18.491Z,23.40
2018-07-08T05:59:49.236Z,22.07
2018-07-08T06:02:17.815Z,22.80
2018-07-08T06:04:48.626Z,23.60
2018-07-08T06:07:17.232Z,23.87
2018-07-08T06:09:45.836Z,23.33
2018-07-08T06:12:14.503Z,23.33
2018-07-08T06:14:43.164Z,24.37
2018-07-08T06:17:12.895Z,24.30
2018-07-08T06:19:41.523Z,24.03
2018-07-08T06:22:10.201Z,21.93
2018-07-08T06:24:38.885Z,20.17
2018-07-08T06:27:07.554Z,19.97
2018-07-08T06:29:40.108Z,20.10
2018-07-08T06:32:08.782Z,20.80
2018-07-08T06:34:39.462Z,19.93
2018-07-08T06:37:08.235Z,21.00
2018-07-08T06:39:36.857Z,18.03
2018-07-08T06:42:05.487Z,17.53
2018-07-08T06:44:34.062Z,18.60
2018-07-08T06:47:02.610Z,18.10
2018-07-08T06:49:31.219Z,17.93
2018-07-08T06:51:59.895Z,18.10
2018-07-08T06:54:28.550Z,16.10
2018-07-08T06:56:57.187Z,16.47
2018-07-08T06:59:25.751Z,17.33
2018-07-08T07:01:54.398Z,16.03
2018-07-08T07:04:23.025Z,16.83
2018-07-08T07:06:51.593Z,13.30
2018-07-08T07:09:20.303Z,13.30
2018-07-08T07:11:49.013Z,13.00
2018-07-08T07:14:17.735Z,13.07
2018-07-08T07:16:46.369Z,12.90
2018-07-08T07:19:14.976Z,12.67
2018-07-08T07:21:43.522Z,13.03
2018-07-08T07:24:12.134Z,11.67
2018-07-08T07:26:46.630Z,12.70
2018-07-08T07:29:15.237Z,11.63
2018-07-08T07:31:43.850Z,12.30
2018-07-08T07:34:12.511Z,11.40
2018-07-08T07:36:41.193Z,10.20
2018-07-08T07:39:09.876Z,10.23
2018-07-08T07:41:50.431Z,10.67
2018-07-08T07:44:19.043Z,10.57
2018-07-08T07:46:47.701Z,8.07
2018-07-08T07:49:16.286Z,7.63
2018-07-08T07:51:44.927Z,8.43
2018-07-08T07:54:13.504Z,7.73
2018-07-08T07:56:43.431Z,8.37
2018-07-08T07:59:12.090Z,7.30
2018-07-08T08:01:40.642Z,6.87
2018-07-08T08:04:09.496Z,6.77
2018-07-08T08:06:38.076Z,6.87
2018-07-08T08:09:07.326Z,6.87
2018-07-08T08:11:39.933Z,6.47
2018-07-08T08:14:08.575Z,6.37
2018-07-08T08:16:37.186Z,7.60
2018-07-08T08:19:05.901Z,7.53
2018-07-08T08:21:34.517Z,6.50
2018-07-08T08:24:04.243Z,6.40
2018-07-08T08:26:33.014Z,6.73
2018-07-08T08:29:01.620Z,7.23
2018-07-08T08:31:30.278Z,6.80
2018-07-08T08:35:05.859Z,6.90
2018-07-08T08:37:39.151Z,6.77
2018-07-08T08:40:08.326Z,6.57
2018-07-08T08:42:37.182Z,5.70
2018-07-08T08:45:11.305Z,6.70
2018-07-08T08:47:39.628Z,5.83
2018-07-08T08:50:15.810Z,5.20
2018-07-08T08:52:44.372Z,5.50
2018-07-08T08:55:13.462Z,4.50
2018-07-08T08:57:42.226Z,4.20
2018-07-08T09:00:12.524Z,4.47
2018-07-08T09:02:41.315Z,3.90
2018-07-08T09:05:14.723Z,3.90
2018-07-08T09:07:43.531Z,5.00
2018-07-08T09:10:12.703Z,3.80
2018-07-08T09:12:41.354Z,4.33
2018-07-08T09:15:09.978Z,5.13
2018-07-08T09:17:38.569Z,4.80
2018-07-08T09:20:07.295Z,4.53
2018-07-08T09:22:35.878Z,4.83
2018-07-08T09:25:04.830Z,9.70
2018-07-08T09:27:33.472Z,4.87
2018-07-08T09:30:02.062Z,4.20
2018-07-08T09:32:30.705Z,4.60
2018-07-08T09:34:59.275Z,4.43
2018-07-08T09:37:27.934Z,4.07
2018-07-08T09:39:56.518Z,4.20
2018-07-08T09:42:25.154Z,3.60
2018-07-08T09:44:53.783Z,3.50
2018-07-08T09:47:22.524Z,3.97
2018-07-08T09:49:51.176Z,4.17
2018-07-08T09:52:19.833Z,4.80
2018-07-08T09:54:48.459Z,4.23
2018-07-08T09:57:17.130Z,4.17
2018-07-08T09:59:52.339Z,4.03
2018-07-08T10:02:21.193Z,4.27
2018-07-08T10:04:49.840Z,4.40
2018-07-08T10:07:18.479Z,4.40
2018-07-08T10:09:52.598Z,4.63
2018-07-08T10:12:21.320Z,4.10
2018-07-08T10:14:50.055Z,3.50
2018-07-08T10:17:18.758Z,4.10
2018-07-08T10:19:47.521Z,4.00
2018-07-08T10:22:21.928Z,3.80
2018-07-08T10:24:50.626Z,3.63
2018-07-08T10:27:50.081Z,4.13
2018-07-08T10:30:19.764Z,4.20
2018-07-08T10:32:48.463Z,2.87
2018-07-08T10:36:22.210Z,3.77
2018-07-08T10:38:50.818Z,3.60
2018-07-08T10:41:22.777Z,4.03
2018-07-08T10:43:51.467Z,3.43
2018-07-08T10:46:21.171Z,3.20
2018-07-08T10:48:49.784Z,3.87
2018-07-08T10:51:18.445Z,3.80
2018-07-08T10:53:47.053Z,4.17
2018-07-08T10:56:15.311Z,3.60
2018-07-08T10:58:43.997Z,4.10
2018-07-08T11:01:12.680Z,4.40
2018-07-08T11:03:41.330Z,3.80
2018-07-08T11:06:09.948Z,4.87
2018-07-08T11:08:38.540Z,4.93
2018-07-08T11:11:07.392Z,5.23
2018-07-08T11:13:36.071Z,5.80
2018-07-08T11:16:04.664Z,5.53
2018-07-08T11:18:33.343Z,5.40
2018-07-08T11:21:01.868Z,6.50
2018-07-08T11:23:30.485Z,5.47
2018-07-08T11:25:58.768Z,6.40
2018-07-08T11:28:27.355Z,5.10
2018-07-08T11:30:56.029Z,5.27
2018-07-08T11:33:24.260Z,4.97
2018-07-08T11:35:52.879Z,4.87
2018-07-08T11:38:22.300Z,4.50
2018-07-08T11:40:50.996Z,4.17
2018-07-08T11:43:19.663Z,3.63
2018-07-08T11:45:47.942Z,3.80
2018-07-08T11:48:16.626Z,3.90
2018-07-08T11:50:44.918Z,4.10
2018-07-08T11:53:13.604Z,3.90
2018-07-08T11:55:42.251Z,3.90
2018-07-08T11:58:10.878Z,3.50
2018-07-08T12:00:41.449Z,3.53
2018-07-08T12:03:10.017Z,3.83
2018-07-08T12:05:39.506Z,3.67
2018-07-08T12:08:08.242Z,3.63
2018-07-08T12:10:36.982Z,3.67
2018-07-08T12:13:05.925Z,4.07
2018-07-08T12:15:34.467Z,4.37
2018-07-08T12:18:04.225Z,4.10
2018-07-08T12:20:32.895Z,3.73
2018-07-08T12:23:01.563Z,3.73
2018-07-08T12:25:30.161Z,3.10
2018-07-08T12:27:59.050Z,3.80
2018-07-08T12:30:27.724Z,4.20
2018-07-08T12:32:59.828Z,3.70
2018-07-08T12:35:28.073Z,3.67
2018-07-08T12:37:56.706Z,3.37
2018-07-08T12:40:25.435Z,3.67
2018-07-08T12:42:54.021Z,3.60
2018-07-08T12:45:22.700Z,3.47
2018-07-08T12:47:51.318Z,3.77
2018-07-08T12:50:23.608Z,3.67
2018-07-08T12:52:52.197Z,3.37
2018-07-08T12:55:20.785Z,4.00
2018-07-08T12:57:49.363Z,4.07
2018-07-08T13:00:18.036Z,3.40
2018-07-08T13:02:46.254Z,3.53
2018-07-08T13:05:14.886Z,3.60
2018-07-08T13:07:43.154Z,3.10
2018-07-08T13:10:11.830Z,2.80
2018-07-08T13:12:40.178Z,3.33
2018-07-08T13:15:08.744Z,2.97
2018-07-08T13:17:37.307Z,3.47
2018-07-08T13:20:05.630Z,3.30
2018-07-08T13:22:34.163Z,3.03
2018-07-08T13:25:02.807Z,3.43
2018-07-08T13:27:31.359Z,3.70
2018-07-08T13:30:00.063Z,3.90
2018-07-08T13:32:28.678Z,3.47
2018-07-08T13:34:57.247Z,3.20
2018-07-08T13:37:25.919Z,3.10
2018-07-08T13:39:54.629Z,3.07
2018-07-08T13:42:23.237Z,3.10
2018-07-08T13:44:51.608Z,3.60
2018-07-08T13:47:20.255Z,3.87
2018-07-08T13:49:48.859Z,3.27
2018-07-08T13:52:17.538Z,3.27
2018-07-08T13:54:46.608Z,3.50
2018-07-08T13:57:15.245Z,3.40
2018-07-08T13:59:47.749Z,3.43
2018-07-08T14:02:16.283Z,3.60
2018-07-08T14:04:44.996Z,3.20
2018-07-08T14:07:13.565Z,3.97
2018-07-08T14:09:42.643Z,3.50
2018-07-08T14:12:11.560Z,3.07
2018-07-08T14:14:46.134Z,3.40
2018-07-08T14:17:15.193Z,3.20
2018-07-08T14:19:44.122Z,3.10
2018-07-08T14:22:13.195Z,3.20
2018-07-08T14:24:42.182Z,2.90
2018-07-08T14:27:11.203Z,3.00
2018-07-08T14:29:46.127Z,3.27
2018-07-08T14:32:15.142Z,3.50
2018-07-08T14:34:44.359Z,3.40
2018-07-08T14:37:13.299Z,3.97
2018-07-08T14:39:42.365Z,3.23
2018-07-08T14:42:11.287Z,3.63
2018-07-08T14:44:40.465Z,3.10
2018-07-08T14:47:09.350Z,3.30
2018-07-08T14:49:38.331Z,3.27
2018-07-08T14:52:07.660Z,3.17
2018-07-08T14:54:36.646Z,3.57
2018-07-08T14:57:06.635Z,3.37
2018-07-08T14:59:35.784Z,3.30
2018-07-08T15:02:05.770Z,3.10
2018-07-08T15:04:34.676Z,3.03
2018-07-08T15:07:04.758Z,3.50
2018-07-08T15:09:33.786Z,3.47
2018-07-08T15:12:02.836Z,3.50
2018-07-08T15:14:31.822Z,2.67
2018-07-08T15:17:00.759Z,2.93
2018-07-08T15:19:29.789Z,2.83
2018-07-08T15:21:58.928Z,3.10
2018-07-08T15:24:27.973Z,2.97
2018-07-08T15:26:57.022Z,3.50
2018-07-08T15:29:25.974Z,3.40
2018-07-08T15:31:54.604Z,3.20
2018-07-08T15:34:22.901Z,2.93
2018-07-08T15:36:51.566Z,2.60
2018-07-08T15:39:20.174Z,2.90
2018-07-08T15:41:48.920Z,2.50
2018-07-08T15:44:17.529Z,2.70
2018-07-08T15:46:46.152Z,3.20
2018-07-08T15:49:15.054Z,3.10
2018-07-08T15:51:43.675Z,2.63
2018-07-08T15:54:12.455Z,2.97
2018-07-08T15:56:41.124Z,2.93
2018-07-08T15:59:09.792Z,2.83
2018-07-08T16:01:38.432Z,2.73
2018-07-08T16:04:06.834Z,2.50
2018-07-08T16:06:35.416Z,3.00
2018-07-08T16:09:04.890Z,2.57
2018-07-08T16:11:39.518Z,2.80
2018-07-08T16:14:07.874Z,2.80
2018-07-08T16:16:36.692Z,2.87
2018-07-08T16:19:06.103Z,2.43
2018-07-08T16:21:34.848Z,2.40
2018-07-08T16:24:04.722Z,2.60
2018-07-08T16:26:33.365Z,2.20
2018-07-08T16:29:02.048Z,2.13
2018-07-08T16:31:30.754Z,2.73
2018-07-08T16:33:58.942Z,2.33
2018-07-08T16:36:27.651Z,5.90
2018-07-08T16:38:56.336Z,3.00
2018-07-08T16:41:26.016Z,2.50
2018-07-08T16:43:54.751Z,2.70
2018-07-08T16:46:23.437Z,2.20
2018-07-08T16:48:52.130Z,2.60
2018-07-08T16:51:20.790Z,2.67
2018-07-08T16:53:49.367Z,2.70
2018-07-08T16:56:19.085Z,2.60
2018-07-08T16:58:47.745Z,2.33
2018-07-08T17:01:17.434Z,2.20
2018-07-08T17:03:47.017Z,2.43
2018-07-08T17:06:15.805Z,2.83
2018-07-08T17:08:45.318Z,2.20
2018-07-08T17:11:13.984Z,2.10
2018-07-08T17:13:42.632Z,2.50
2018-07-08T17:16:11.383Z,2.17
2018-07-08T17:18:39.655Z,2.60
2018-07-08T17:21:08.380Z,2.60
2018-07-08T17:23:37.057Z,2.40
2018-07-08T17:26:05.744Z,2.30
2018-07-08T17:28:34.355Z,2.47
2018-07-08T17:31:03.196Z,2.40
2018-07-08T17:33:31.969Z,2.00
2018-07-08T17:36:08.845Z,2.77
2018-07-08T17:38:37.655Z,1.60
2018-07-08T17:41:06.630Z,2.13
2018-07-08T17:43:38.015Z,2.43
2018-07-08T17:46:06.642Z,2.00
2018-07-08T17:48:35.397Z,2.03
2018-07-08T17:51:04.014Z,2.10
2018-07-08T17:53:32.695Z,2.10
2018-07-08T17:56:02.574Z,2.00
2018-07-08T17:58:31.281Z,1.90
2018-07-08T18:01:00.024Z,2.50
2018-07-08T18:03:28.762Z,2.57
2018-07-08T18:05:57.397Z,2.47
2018-07-08T18:08:26.030Z,1.80
2018-07-08T18:10:54.611Z,2.23
2018-07-08T18:13:28.226Z,2.00
2018-07-08T18:15:56.799Z,1.93
2018-07-08T18:18:26.536Z,1.90
2018-07-08T18:20:55.155Z,1.87
2018-07-08T18:23:23.840Z,2.50
2018-07-08T18:25:52.454Z,2.50
2018-07-08T18:28:21.059Z,2.60
2018-07-08T18:30:49.618Z,2.23
2018-07-08T18:33:18.595Z,2.13
2018-07-08T18:35:46.905Z,2.10
2018-07-08T18:38:15.615Z,2.57
2018-07-08T18:40:45.195Z,3.63
2018-07-08T18:43:14.013Z,2.57
2018-07-08T18:45:44.285Z,2.53
2018-07-08T18:48:12.793Z,2.67
2018-07-08T18:50:41.414Z,3.00
2018-07-08T18:53:10.044Z,2.77
2018-07-08T18:55:39.091Z,3.00
2018-07-08T18:58:07.895Z,2.73
2018-07-08T19:00:36.593Z,3.17
2018-07-08T19:03:05.272Z,2.93
2018-07-08T19:05:33.958Z,3.37
2018-07-08T19:08:07.120Z,2.87
2018-07-08T19:10:35.821Z,4.17
2018-07-08T19:13:04.408Z,2.90
2018-07-08T19:15:33.115Z,2.60
2018-07-08T19:18:01.950Z,2.40
2018-07-08T19:20:30.764Z,2.67
2018-07-08T19:22:59.429Z,2.30
2018-07-08T19:25:28.165Z,2.70
2018-07-08T19:27:56.838Z,2.40
2018-07-08T19:30:25.559Z,2.57
2018-07-08T19:32:54.200Z,2.73
2018-07-08T19:35:22.839Z,2.43
2018-07-08T19:37:51.479Z,2.20
2018-07-08T19:40:19.738Z,2.83
2018-07-08T19:42:48.385Z,2.50
2018-07-08T19:45:17.057Z,2.50
2018-07-08T19:47:46.779Z,2.10
2018-07-08T19:50:15.324Z,2.40
2018-07-08T19:52:44.088Z,2.40
2018-07-08T19:55:12.751Z,2.10
2018-07-08T19:57:41.376Z,2.43
2018-07-08T20:00:10.030Z,2.00
2018-07-08T20:02:38.637Z,2.20
2018-07-08T20:05:07.276Z,2.40
2018-07-08T20:07:35.885Z,3.30
2018-07-08T20:10:04.610Z,2.77
2018-07-08T20:12:32.913Z,2.60
2018-07-08T20:15:02.056Z,2.07
2018-07-08T20:17:30.816Z,2.00
2018-07-08T20:19:59.549Z,2.20
2018-07-08T20:22:28.131Z,2.00
2018-07-08T20:24:56.756Z,1.80
2018-07-08T20:27:25.333Z,2.53
2018-07-08T20:29:53.994Z,1.83
2018-07-08T20:32:22.644Z,1.77
2018-07-08T20:34:51.296Z,1.77
2018-07-08T20:37:20.008Z,2.23
2018-07-08T20:39:48.580Z,1.97
2018-07-08T20:42:17.222Z,1.70
2018-07-08T20:44:45.981Z,2.00
2018-07-08T20:47:14.641Z,1.93
2018-07-08T20:49:43.350Z,4.23
2018-07-08T20:52:11.975Z,2.40
2018-07-08T20:54:40.917Z,2.20
2018-07-08T20:57:09.519Z,1.97
2018-07-08T20:59:38.119Z,2.07
2018-07-08T21:02:06.921Z,2.43
2018-07-08T21:04:35.624Z,1.50
2018-07-08T21:07:04.257Z,1.90
2018-07-08T21:09:32.489Z,2.07
2018-07-08T21:12:01.127Z,2.17
2018-07-08T21:14:29.755Z,2.07
2018-07-08T21:17:00.308Z,2.00
2018-07-08T21:19:28.970Z,2.03
2018-07-08T21:21:57.795Z,2.97
2018-07-08T21:24:26.833Z,2.33
2018-07-08T21:26:57.532Z,2.20
2018-07-08T21:29:26.103Z,1.90
2018-07-08T21:31:54.681Z,2.00
2018-07-08T21:34:23.300Z,1.90
2018-07-08T21:36:52.123Z,2.20
2018-07-08T21:39:20.756Z,2.30
2018-07-08T21:41:49.494Z,1.87
2018-07-08T21:44:18.452Z,2.00
2018-07-08T21:46:47.134Z,2.20
2018-07-08T21:49:15.730Z,2.40
2018-07-08T21:51:44.254Z,2.40
2018-07-08T21:54:13.986Z,1.73
2018-07-08T21:56:42.614Z,2.40
2018-07-08T21:59:11.196Z,1.70
2018-07-08T22:01:55.815Z,2.43
2018-07-08T22:04:24.553Z,1.80
2018-07-08T22:06:53.186Z,2.50
2018-07-08T22:09:21.868Z,2.20
2018-07-08T22:11:50.567Z,2.47
2018-07-08T22:14:19.237Z,1.87
2018-07-08T22:16:47.855Z,2.10
2018-07-08T22:19:16.463Z,2.20
2018-07-08T22:21:45.166Z,1.77
2018-07-08T22:24:13.773Z,2.13
2018-07-08T22:26:42.385Z,2.50
2018-07-08T22:29:11.628Z,1.70
2018-07-08T22:31:40.296Z,1.80
2018-07-08T22:34:08.519Z,2.20
2018-07-08T22:36:37.456Z,2.20
2018-07-08T22:39:07.310Z,2.13
2018-07-08T22:41:36.483Z,2.10
2018-07-08T22:44:05.415Z,2.20
2018-07-08T22:46:34.110Z,2.10
2018-07-08T22:49:02.815Z,1.90
2018-07-08T22:51:32.946Z,2.23
2018-07-08T22:54:01.572Z,2.23
2018-07-08T22:56:30.222Z,2.20
2018-07-08T22:58:58.866Z,1.80
2018-07-08T23:01:38.630Z,1.70
2018-07-08T23:04:07.572Z,2.00
2018-07-08T23:06:37.218Z,2.63
2018-07-08T23:09:06.621Z,2.00
2018-07-08T23:11:35.337Z,2.40
2018-07-08T23:14:03.577Z,1.90
2018-07-08T23:16:32.164Z,2.40
2018-07-08T23:19:01.872Z,2.40
2018-07-08T23:21:30.509Z,1.87
2018-07-08T23:23:59.109Z,2.63
2018-07-08T23:26:27.702Z,2.50
2018-07-08T23:28:56.319Z,2.30
2018-07-08T23:31:24.933Z,2.50
2018-07-08T23:33:53.530Z,2.20
2018-07-08T23:36:22.185Z,2.47
2018-07-08T23:38:50.967Z,2.50
2018-07-08T23:41:19.614Z,3.00
2018-07-08T23:43:48.377Z,2.53
2018-07-08T23:46:16.976Z,2.23
2018-07-08T23:48:45.596Z,3.23
2018-07-08T23:51:14.263Z,2.70
2018-07-08T23:53:42.981Z,2.80
2018-07-08T23:56:11.558Z,2.77
2018-07-08T23:58:40.213Z,2.70
